sensor_id;sensor_type;location;lat;lon;timestamp;pressure;altitude;pressure_sealevel;temperature;humidity
498;BME280;39559;48.630;9.162;2023-03-02T00:01:49;97517.06;;;-2.09;100.00
498;BME280;39559;48.630;9.162;2023-03-02T00:04:30;97517.84;;;-2.20;100.00
498;BME280;39559;48.630;9.162;2023-03-02T00:08:26;97522.84;;;-2.29;100.00
498;BME280;39559;48.630;9.162;2023-03-02T00:10:52;97529.66;;;-2.25;100.00
498;BME280;39559;48.630;9.162;2023-03-02T00:13:19;97522.84;;;-2.27;100.00
498;BME280;39559;48.630;9.162;2023-03-02T00:15:48;97528.63;;;-2.44;100.00
498;BME280;39559;48.630;9.162;2023-03-02T00:18:14;97518.44;;;-2.48;100.00
498;BME280;39559;48.630;9.162;2023-03-02T00:20:42;97517.66;;;-2.41;100.00
498;BME280;39559;48.630;9.162;2023-03-02T00:23:11;97514.16;;;-2.54;100.00
498;BME280;39559;48.630;9.162;2023-03-02T00:25:38;97521.84;;;-2.46;100.00
498;BME280;39559;48.630;9.162;2023-03-02T00:28:04;97520.13;;;-2.49;100.00
498;BME280;39559;48.630;9.162;2023-03-02T00:32:19;97516.78;;;-2.45;100.00
498;BME280;39559;48.630;9.162;2023-03-02T00:34:45;97510.88;;;-2.41;100.00
498;BME280;39559;48.630;9.162;2023-03-02T00:37:11;97518.53;;;-2.38;100.00
498;BME280;39559;48.630;9.162;2023-03-02T00:39:39;97522.75;;;-2.37;100.00
498;BME280;39559;48.630;9.162;2023-03-02T00:42:05;97522.69;;;-2.46;100.00
498;BME280;39559;48.630;9.162;2023-03-02T00:44:30;97522.63;;;-2.52;100.00
498;BME280;39559;48.630;9.162;2023-03-02T00:46:56;97518.47;;;-2.45;100.00
498;BME280;39559;48.630;9.162;2023-03-02T00:49:22;97513.22;;;-2.61;100.00
498;BME280;39559;48.630;9.162;2023-03-02T00:51:47;97509.78;;;-2.66;100.00
498;BME280;39559;48.630;9.162;2023-03-02T00:56:20;97519.34;;;-2.43;100.00
498;BME280;39559;48.630;9.162;2023-03-02T00:58:46;97509.00;;;-2.62;100.00
498;BME280;39559;48.630;9.162;2023-03-02T01:01:12;97506.47;;;-2.59;100.00
498;BME280;39559;48.630;9.162;2023-03-02T01:03:38;97511.53;;;-2.60;100.00
498;BME280;39559;48.630;9.162;2023-03-02T01:06:04;97497.97;;;-2.62;100.00
498;BME280;39559;48.630;9.162;2023-03-02T01:08:30;97504.69;;;-2.69;100.00
498;BME280;39559;48.630;9.162;2023-03-02T01:10:56;97500.41;;;-2.72;100.00
498;BME280;39559;48.630;9.162;2023-03-02T01:13:25;97496.94;;;-2.80;100.00
498;BME280;39559;48.630;9.162;2023-03-02T01:15:59;97496.09;;;-2.82;100.00
498;BME280;39559;48.630;9.162;2023-03-02T01:20:22;97491.97;;;-2.71;100.00
498;BME280;39559;48.630;9.162;2023-03-02T01:22:51;97489.31;;;-2.81;100.00
498;BME280;39559;48.630;9.162;2023-03-02T01:25:16;97483.44;;;-2.74;100.00
498;BME280;39559;48.630;9.162;2023-03-02T01:27:42;97479.13;;;-2.83;100.00
498;BME280;39559;48.630;9.162;2023-03-02T01:30:08;97480.97;;;-2.68;100.00
498;BME280;39559;48.630;9.162;2023-03-02T01:32:34;97482.47;;;-2.87;100.00
498;BME280;39559;48.630;9.162;2023-03-02T01:34:59;97475.75;;;-2.80;100.00
498;BME280;39559;48.630;9.162;2023-03-02T01:37:28;97469.91;;;-2.75;100.00
498;BME280;39559;48.630;9.162;2023-03-02T01:39:56;97464.00;;;-2.67;100.00
498;BME280;39559;48.630;9.162;2023-03-02T01:44:49;97468.19;;;-2.76;100.00
498;BME280;39559;48.630;9.162;2023-03-02T01:47:25;97462.16;;;-2.85;100.00
498;BME280;39559;48.630;9.162;2023-03-02T01:49:58;97462.16;;;-2.84;100.00
498;BME280;39559;48.630;9.162;2023-03-02T01:52:25;97454.50;;;-2.88;100.00
498;BME280;39559;48.630;9.162;2023-03-02T01:54:52;97452.72;;;-2.97;100.00
498;BME280;39559;48.630;9.162;2023-03-02T01:57:28;97453.50;;;-3.04;100.00
498;BME280;39559;48.630;9.162;2023-03-02T02:00:01;97458.59;;;-3.03;100.00
498;BME280;39559;48.630;9.162;2023-03-02T02:02:34;97455.25;;;-2.99;100.00
498;BME280;39559;48.630;9.162;2023-03-02T02:05:01;97455.22;;;-3.03;100.00
498;BME280;39559;48.630;9.162;2023-03-02T02:08:26;97447.53;;;-3.08;100.00
498;BME280;39559;48.630;9.162;2023-03-02T02:10:53;97456.75;;;-3.15;100.00
498;BME280;39559;48.630;9.162;2023-03-02T02:13:21;97451.66;;;-3.18;100.00
498;BME280;39559;48.630;9.162;2023-03-02T02:15:50;97452.47;;;-3.20;100.00
498;BME280;39559;48.630;9.162;2023-03-02T02:18:16;97448.25;;;-3.20;100.00
498;BME280;39559;48.630;9.162;2023-03-02T02:20:45;97452.50;;;-3.19;100.00
498;BME280;39559;48.630;9.162;2023-03-02T02:24:09;97456.53;;;-3.35;100.00
498;BME280;39559;48.630;9.162;2023-03-02T02:26:38;97446.63;;;-3.13;100.00
498;BME280;39559;48.630;9.162;2023-03-02T02:29:23;97450.78;;;-3.21;100.00
498;BME280;39559;48.630;9.162;2023-03-02T02:32:30;97442.41;;;-3.13;100.00
498;BME280;39559;48.630;9.162;2023-03-02T02:35:15;97443.34;;;-3.03;100.00
498;BME280;39559;48.630;9.162;2023-03-02T02:37:51;97436.63;;;-2.98;100.00
498;BME280;39559;48.630;9.162;2023-03-02T02:43:02;97439.69;;;-3.28;100.00
498;BME280;39559;48.630;9.162;2023-03-02T02:45:27;97431.28;;;-3.25;100.00
498;BME280;39559;48.630;9.162;2023-03-02T02:47:54;97439.75;;;-3.20;100.00
498;BME280;39559;48.630;9.162;2023-03-02T02:50:34;97431.22;;;-3.29;100.00
498;BME280;39559;48.630;9.162;2023-03-02T02:53:08;97432.13;;;-3.25;100.00
498;BME280;39559;48.630;9.162;2023-03-02T02:56:37;97434.47;;;-3.42;100.00
498;BME280;39559;48.630;9.162;2023-03-02T02:59:14;97420.19;;;-3.32;100.00
498;BME280;39559;48.630;9.162;2023-03-02T03:01:41;97428.66;;;-3.30;100.00
498;BME280;39559;48.630;9.162;2023-03-02T03:04:13;97426.16;;;-3.29;100.00
498;BME280;39559;48.630;9.162;2023-03-02T03:06:51;97417.81;;;-3.15;100.00
498;BME280;39559;48.630;9.162;2023-03-02T03:09:17;97417.81;;;-3.18;100.00
498;BME280;39559;48.630;9.162;2023-03-02T03:11:45;97423.53;;;-3.33;100.00
498;BME280;39559;48.630;9.162;2023-03-02T03:14:15;97425.78;;;-3.59;100.00
498;BME280;39559;48.630;9.162;2023-03-02T03:16:45;97413.81;;;-3.70;100.00
498;BME280;39559;48.630;9.162;2023-03-02T03:20:31;97408.94;;;-3.51;100.00
498;BME280;39559;48.630;9.162;2023-03-02T03:22:57;97411.41;;;-3.62;100.00
498;BME280;39559;48.630;9.162;2023-03-02T03:25:25;97416.56;;;-3.54;100.00
498;BME280;39559;48.630;9.162;2023-03-02T03:27:54;97414.06;;;-3.50;100.00
498;BME280;39559;48.630;9.162;2023-03-02T03:30:19;97414.97;;;-3.44;100.00
498;BME280;39559;48.630;9.162;2023-03-02T03:32:46;97411.28;;;-3.68;100.00
498;BME280;39559;48.630;9.162;2023-03-02T03:35:12;97423.06;;;-3.73;100.00
498;BME280;39559;48.630;9.162;2023-03-02T03:37:39;97422.44;;;-3.58;100.00
498;BME280;39559;48.630;9.162;2023-03-02T03:40:06;97421.59;;;-3.56;100.00
498;BME280;39559;48.630;9.162;2023-03-02T03:44:33;97419.94;;;-3.54;100.00
498;BME280;39559;48.630;9.162;2023-03-02T03:47:02;97419.88;;;-3.60;100.00
498;BME280;39559;48.630;9.162;2023-03-02T03:49:28;97424.66;;;-3.83;100.00
498;BME280;39559;48.630;9.162;2023-03-02T03:51:54;97425.41;;;-3.89;100.00
498;BME280;39559;48.630;9.162;2023-03-02T03:54:19;97425.59;;;-3.75;100.00
498;BME280;39559;48.630;9.162;2023-03-02T03:56:47;97420.34;;;-3.89;100.00
498;BME280;39559;48.630;9.162;2023-03-02T03:59:16;97426.53;;;-3.68;100.00
498;BME280;39559;48.630;9.162;2023-03-02T04:01:56;97420.59;;;-3.70;100.00
498;BME280;39559;48.630;9.162;2023-03-02T04:04:28;97426.50;;;-3.70;100.00
498;BME280;39559;48.630;9.162;2023-03-02T04:08:35;97439.16;;;-3.74;100.00
498;BME280;39559;48.630;9.162;2023-03-02T04:11:01;97437.22;;;-3.92;100.00
498;BME280;39559;48.630;9.162;2023-03-02T04:13:26;97443.22;;;-3.86;100.00
498;BME280;39559;48.630;9.162;2023-03-02T04:15:52;97442.25;;;-3.94;100.00
498;BME280;39559;48.630;9.162;2023-03-02T04:18:18;97440.81;;;-3.76;100.00
498;BME280;39559;48.630;9.162;2023-03-02T04:20:43;97444.13;;;-3.80;100.00
498;BME280;39559;48.630;9.162;2023-03-02T04:23:09;97442.44;;;-3.78;100.00
498;BME280;39559;48.630;9.162;2023-03-02T04:25:37;97440.06;;;-3.69;100.00
498;BME280;39559;48.630;9.162;2023-03-02T04:28:03;97435.63;;;-3.86;100.00
498;BME280;39559;48.630;9.162;2023-03-02T04:32:41;97440.53;;;-3.98;100.00
498;BME280;39559;48.630;9.162;2023-03-02T04:35:12;97436.31;;;-3.96;100.00
498;BME280;39559;48.630;9.162;2023-03-02T04:37:38;97435.69;;;-3.79;100.00
498;BME280;39559;48.630;9.162;2023-03-02T04:40:05;97432.38;;;-3.74;100.00
498;BME280;39559;48.630;9.162;2023-03-02T04:42:31;97438.34;;;-3.70;100.00
498;BME280;39559;48.630;9.162;2023-03-02T04:44:56;97448.44;;;-3.73;100.00
498;BME280;39559;48.630;9.162;2023-03-02T04:47:22;97439.06;;;-3.79;100.00
498;BME280;39559;48.630;9.162;2023-03-02T04:49:47;97442.59;;;-3.69;100.00
498;BME280;39559;48.630;9.162;2023-03-02T04:52:15;97445.97;;;-3.69;100.00
498;BME280;39559;48.630;9.162;2023-03-02T04:56:43;97436.72;;;-3.65;100.00
498;BME280;39559;48.630;9.162;2023-03-02T04:59:16;97440.94;;;-3.64;100.00
498;BME280;39559;48.630;9.162;2023-03-02T05:01:43;97439.41;;;-3.53;100.00
498;BME280;39559;48.630;9.162;2023-03-02T05:04:12;97446.38;;;-3.36;100.00
498;BME280;39559;48.630;9.162;2023-03-02T05:06:38;97447.25;;;-3.31;100.00
498;BME280;39559;48.630;9.162;2023-03-02T05:09:03;97435.28;;;-3.44;100.00
498;BME280;39559;48.630;9.162;2023-03-02T05:11:30;97437.16;;;-3.28;100.00
498;BME280;39559;48.630;9.162;2023-03-02T05:13:58;97430.41;;;-3.26;100.00
498;BME280;39559;48.630;9.162;2023-03-02T05:16:26;97433.91;;;-3.13;100.00
498;BME280;39559;48.630;9.162;2023-03-02T05:20:42;97423.88;;;-3.02;100.00
498;BME280;39559;48.630;9.162;2023-03-02T05:23:09;97427.25;;;-3.05;100.00
498;BME280;39559;48.630;9.162;2023-03-02T05:25:38;97427.00;;;-3.28;100.00
498;BME280;39559;48.630;9.162;2023-03-02T05:28:04;97429.78;;;-3.05;100.00
498;BME280;39559;48.630;9.162;2023-03-02T05:30:30;97431.50;;;-3.01;100.00
498;BME280;39559;48.630;9.162;2023-03-02T05:32:58;97429.00;;;-2.99;100.00
498;BME280;39559;48.630;9.162;2023-03-02T05:35:26;97432.41;;;-2.97;100.00
498;BME280;39559;48.630;9.162;2023-03-02T05:37:52;97434.16;;;-2.90;100.00
498;BME280;39559;48.630;9.162;2023-03-02T05:40:19;97433.31;;;-2.87;100.00
498;BME280;39559;48.630;9.162;2023-03-02T05:44:45;97435.09;;;-2.83;100.00
498;BME280;39559;48.630;9.162;2023-03-02T05:47:10;97430.91;;;-2.74;100.00
498;BME280;39559;48.630;9.162;2023-03-02T05:49:36;97439.31;;;-2.82;100.00
498;BME280;39559;48.630;9.162;2023-03-02T05:52:01;97442.84;;;-2.66;100.00
498;BME280;39559;48.630;9.162;2023-03-02T05:54:27;97437.88;;;-2.54;100.00
498;BME280;39559;48.630;9.162;2023-03-02T05:56:55;97436.97;;;-2.61;100.00
498;BME280;39559;48.630;9.162;2023-03-02T05:59:21;97434.47;;;-2.56;100.00
498;BME280;39559;48.630;9.162;2023-03-02T06:01:46;97443.84;;;-2.51;100.00
498;BME280;39559;48.630;9.162;2023-03-02T06:04:15;97443.88;;;-2.46;100.00
498;BME280;39559;48.630;9.162;2023-03-02T06:08:50;97442.97;;;-2.51;100.00
498;BME280;39559;48.630;9.162;2023-03-02T06:11:16;97443.75;;;-2.60;100.00
498;BME280;39559;48.630;9.162;2023-03-02T06:13:44;97446.22;;;-2.69;100.00
498;BME280;39559;48.630;9.162;2023-03-02T06:16:09;97445.34;;;-2.70;100.00
498;BME280;39559;48.630;9.162;2023-03-02T06:18:38;97446.22;;;-2.69;100.00
498;BME280;39559;48.630;9.162;2023-03-02T06:21:04;97434.31;;;-2.72;100.00
498;BME280;39559;48.630;9.162;2023-03-02T06:23:29;97449.63;;;-2.68;100.00
498;BME280;39559;48.630;9.162;2023-03-02T06:25:55;97448.88;;;-2.54;100.00
498;BME280;39559;48.630;9.162;2023-03-02T06:28:25;97449.16;;;-2.20;100.00
498;BME280;39559;48.630;9.162;2023-03-02T06:32:47;97455.28;;;-1.95;100.00
498;BME280;39559;48.630;9.162;2023-03-02T06:35:13;97451.72;;;-2.18;100.00
498;BME280;39559;48.630;9.162;2023-03-02T06:37:39;97453.50;;;-2.05;100.00
498;BME280;39559;48.630;9.162;2023-03-02T06:40:06;97462.91;;;-1.96;100.00
498;BME280;39559;48.630;9.162;2023-03-02T06:42:35;97460.47;;;-1.78;100.00
498;BME280;39559;48.630;9.162;2023-03-02T06:45:01;97458.66;;;-1.96;100.00
498;BME280;39559;48.630;9.162;2023-03-02T06:47:27;97458.56;;;-2.11;100.00
498;BME280;39559;48.630;9.162;2023-03-02T06:49:53;97457.88;;;-1.85;100.00
498;BME280;39559;48.630;9.162;2023-03-02T06:52:18;97465.50;;;-1.84;100.00
498;BME280;39559;48.630;9.162;2023-03-02T06:56:52;97457.16;;;-1.61;100.00
498;BME280;39559;48.630;9.162;2023-03-02T06:59:20;97463.19;;;-1.41;100.00
498;BME280;39559;48.630;9.162;2023-03-02T07:01:46;97475.19;;;-1.18;100.00
498;BME280;39559;48.630;9.162;2023-03-02T07:04:13;97475.13;;;-1.30;100.00
498;BME280;39559;48.630;9.162;2023-03-02T07:06:39;97470.84;;;-1.36;100.00
498;BME280;39559;48.630;9.162;2023-03-02T07:09:04;97472.63;;;-1.20;100.00
498;BME280;39559;48.630;9.162;2023-03-02T07:11:29;97475.16;;;-1.21;100.00
498;BME280;39559;48.630;9.162;2023-03-02T07:13:55;97471.84;;;-1.02;100.00
498;BME280;39559;48.630;9.162;2023-03-02T07:16:23;97482.00;;;-1.12;100.00
498;BME280;39559;48.630;9.162;2023-03-02T07:20:54;97485.28;;;-1.37;100.00
498;BME280;39559;48.630;9.162;2023-03-02T07:23:22;97490.47;;;-1.12;100.00
498;BME280;39559;48.630;9.162;2023-03-02T07:25:51;97488.72;;;-1.24;100.00
498;BME280;39559;48.630;9.162;2023-03-02T07:28:16;97484.59;;;-0.94;100.00
498;BME280;39559;48.630;9.162;2023-03-02T07:30:42;97484.66;;;-0.66;100.00
498;BME280;39559;48.630;9.162;2023-03-02T07:33:10;97485.50;;;-0.63;100.00
498;BME280;39559;48.630;9.162;2023-03-02T07:35:38;97473.63;;;-0.65;100.00
498;BME280;39559;48.630;9.162;2023-03-02T07:38:07;97480.41;;;-0.64;100.00
498;BME280;39559;48.630;9.162;2023-03-02T07:40:39;97477.84;;;-0.56;100.00
498;BME280;39559;48.630;9.162;2023-03-02T07:44:59;97480.44;;;-0.40;100.00
498;BME280;39559;48.630;9.162;2023-03-02T07:47:25;97481.31;;;-0.34;100.00
498;BME280;39559;48.630;9.162;2023-03-02T07:49:50;97486.38;;;-0.33;100.00
498;BME280;39559;48.630;9.162;2023-03-02T07:52:19;97486.41;;;-0.37;100.00
498;BME280;39559;48.630;9.162;2023-03-02T07:54:47;97483.84;;;-0.31;100.00
498;BME280;39559;48.630;9.162;2023-03-02T07:57:13;97488.94;;;-0.50;100.00
498;BME280;39559;48.630;9.162;2023-03-02T07:59:43;97487.25;;;-0.25;100.00
498;BME280;39559;48.630;9.162;2023-03-02T08:02:12;97484.72;;;-0.02;100.00
498;BME280;39559;48.630;9.162;2023-03-02T08:04:39;97488.06;;;0.16;100.00
498;BME280;39559;48.630;9.162;2023-03-02T08:09:01;97489.75;;;0.35;100.00
498;BME280;39559;48.630;9.162;2023-03-02T08:11:26;97499.09;;;0.43;100.00
498;BME280;39559;48.630;9.162;2023-03-02T08:13:58;97496.53;;;0.52;100.00
498;BME280;39559;48.630;9.162;2023-03-02T08:16:25;97507.56;;;0.62;100.00
498;BME280;39559;48.630;9.162;2023-03-02T08:18:50;97506.69;;;0.70;100.00
498;BME280;39559;48.630;9.162;2023-03-02T08:21:19;97504.22;;;0.46;100.00
498;BME280;39559;48.630;9.162;2023-03-02T08:23:48;97515.28;;;0.45;100.00
498;BME280;39559;48.630;9.162;2023-03-02T08:26:18;97517.81;;;0.59;100.00
498;BME280;39559;48.630;9.162;2023-03-02T08:28:44;97510.16;;;0.57;100.00
498;BME280;39559;48.630;9.162;2023-03-02T08:33:01;97515.25;;;0.57;100.00
498;BME280;39559;48.630;9.162;2023-03-02T08:35:30;97514.38;;;0.60;100.00
498;BME280;39559;48.630;9.162;2023-03-02T08:37:58;97510.16;;;0.57;100.00
498;BME280;39559;48.630;9.162;2023-03-02T08:40:25;97510.06;;;0.88;100.00
498;BME280;39559;48.630;9.162;2023-03-02T08:42:53;97499.78;;;0.92;100.00
498;BME280;39559;48.630;9.162;2023-03-02T08:45:24;97505.69;;;1.10;100.00
498;BME280;39559;48.630;9.162;2023-03-02T08:47:53;97503.94;;;1.18;100.00
498;BME280;39559;48.630;9.162;2023-03-02T08:50:24;97499.63;;;1.28;100.00
498;BME280;39559;48.630;9.162;2023-03-02T08:52:53;97502.97;;;1.39;100.00
498;BME280;39559;48.630;9.162;2023-03-02T08:57:11;97500.41;;;1.41;100.00
498;BME280;39559;48.630;9.162;2023-03-02T08:59:37;97497.91;;;1.33;100.00
498;BME280;39559;48.630;9.162;2023-03-02T09:02:05;97496.97;;;1.49;100.00
498;BME280;39559;48.630;9.162;2023-03-02T09:04:31;97495.03;;;1.78;100.00
498;BME280;39559;48.630;9.162;2023-03-02T09:06:57;97487.28;;;1.87;100.00
498;BME280;39559;48.630;9.162;2023-03-02T09:09:25;97491.56;;;1.88;100.00
498;BME280;39559;48.630;9.162;2023-03-02T09:11:50;97483.75;;;2.02;100.00
498;BME280;39559;48.630;9.162;2023-03-02T09:14:19;97481.31;;;1.89;100.00
498;BME280;39559;48.630;9.162;2023-03-02T09:16:47;97484.63;;;2.02;100.00
498;BME280;39559;48.630;9.162;2023-03-02T09:21:08;97485.25;;;2.24;100.00
498;BME280;39559;48.630;9.162;2023-03-02T09:23:34;97480.16;;;2.23;100.00
498;BME280;39559;48.630;9.162;2023-03-02T09:26:04;97477.47;;;2.37;100.00
498;BME280;39559;48.630;9.162;2023-03-02T09:28:30;97481.50;;;2.59;100.00
498;BME280;39559;48.630;9.162;2023-03-02T09:30:57;97485.81;;;2.54;100.00
498;BME280;39559;48.630;9.162;2023-03-02T09:33:23;97484.25;;;2.41;100.00
498;BME280;39559;48.630;9.162;2023-03-02T09:35:49;97488.53;;;2.39;100.00
498;BME280;39559;48.630;9.162;2023-03-02T09:38:18;97492.56;;;2.63;100.00
498;BME280;39559;48.630;9.162;2023-03-02T09:48:20;97491.88;;;3.20;100.00
498;BME280;39559;48.630;9.162;2023-03-02T09:53:45;97497.13;;;3.09;100.00
498;BME280;39559;48.630;9.162;2023-03-02T09:56:16;97495.44;;;3.11;100.00
498;BME280;39559;48.630;9.162;2023-03-02T09:58:52;97495.19;;;3.28;100.00
498;BME280;39559;48.630;9.162;2023-03-02T10:01:41;97495.03;;;3.40;100.00
498;BME280;39559;48.630;9.162;2023-03-02T10:04:27;97483.53;;;3.68;100.00
498;BME280;39559;48.630;9.162;2023-03-02T10:09:12;97492.81;;;3.14;100.00
498;BME280;39559;48.630;9.162;2023-03-02T10:14:26;97499.38;;;3.37;100.00
498;BME280;39559;48.630;9.162;2023-03-02T10:17:18;97489.38;;;3.76;100.00
498;BME280;39559;48.630;9.162;2023-03-02T10:20:13;97487.19;;;3.50;100.00
498;BME280;39559;48.630;9.162;2023-03-02T10:22:46;97486.28;;;3.54;100.00
498;BME280;39559;48.630;9.162;2023-03-02T10:28:16;97494.66;;;3.67;100.00
498;BME280;39559;48.630;9.162;2023-03-02T10:33:15;97502.28;;;3.71;100.00
498;BME280;39559;48.630;9.162;2023-03-02T10:35:49;97498.84;;;3.71;98.58
498;BME280;39559;48.630;9.162;2023-03-02T10:38:22;97502.88;;;3.89;100.00
498;BME280;39559;48.630;9.162;2023-03-02T10:43:36;97512.59;;;4.24;100.00
498;BME280;39559;48.630;9.162;2023-03-02T10:46:09;97509.25;;;4.19;98.88
498;BME280;39559;48.630;9.162;2023-03-02T10:48:51;97514.69;;;4.52;95.32
498;BME280;39559;48.630;9.162;2023-03-02T10:51:22;97514.22;;;4.30;93.06
498;BME280;39559;48.630;9.162;2023-03-02T10:53:48;97516.25;;;4.09;98.21
498;BME280;39559;48.630;9.162;2023-03-02T10:57:38;97509.13;;;4.25;97.08
498;BME280;39559;48.630;9.162;2023-03-02T11:03:16;97507.31;;;4.32;96.84
498;BME280;39559;48.630;9.162;2023-03-02T11:05:44;97500.47;;;4.31;95.83
498;BME280;39559;48.630;9.162;2023-03-02T11:08:16;97505.94;;;4.62;97.50
498;BME280;39559;48.630;9.162;2023-03-02T11:13:34;97505.50;;;4.84;93.82
498;BME280;39559;48.630;9.162;2023-03-02T11:29:24;97481.16;;;6.15;84.54
498;BME280;39559;48.630;9.162;2023-03-02T11:42:29;97468.41;;;7.64;75.46
498;BME280;39559;48.630;9.162;2023-03-02T11:45:22;97472.31;;;7.20;74.92
498;BME280;39559;48.630;9.162;2023-03-02T11:50:20;97468.34;;;7.09;76.00
498;BME280;39559;48.630;9.162;2023-03-02T11:52:49;97477.94;;;6.73;76.19
498;BME280;39559;48.630;9.162;2023-03-02T11:55:22;97476.66;;;6.24;79.87
498;BME280;39559;48.630;9.162;2023-03-02T11:57:52;97472.72;;;6.43;79.66
498;BME280;39559;48.630;9.162;2023-03-02T12:00:31;97481.44;;;6.70;78.20
498;BME280;39559;48.630;9.162;2023-03-02T12:03:03;97477.22;;;6.02;78.22
498;BME280;39559;48.630;9.162;2023-03-02T12:05:35;97485.28;;;5.85;82.33
498;BME280;39559;48.630;9.162;2023-03-02T12:11:58;97480.59;;;6.04;84.20
498;BME280;39559;48.630;9.162;2023-03-02T12:14:28;97483.94;;;6.42;83.76
498;BME280;39559;48.630;9.162;2023-03-02T12:19:53;97476.34;;;8.89;80.88
498;BME280;39559;48.630;9.162;2023-03-02T12:22:30;97465.03;;;10.25;71.66
498;BME280;39559;48.630;9.162;2023-03-02T12:27:43;97468.06;;;10.57;63.06
498;BME280;39559;48.630;9.162;2023-03-02T12:33:20;97461.50;;;12.72;58.71
498;BME280;39559;48.630;9.162;2023-03-02T12:35:48;97464.00;;;10.51;59.38
498;BME280;39559;48.630;9.162;2023-03-02T12:38:32;97466.31;;;9.50;62.69
498;BME280;39559;48.630;9.162;2023-03-02T12:43:31;97467.41;;;8.22;66.76
498;BME280;39559;48.630;9.162;2023-03-02T12:46:25;97463.75;;;7.47;68.95
498;BME280;39559;48.630;9.162;2023-03-02T12:51:47;97454.03;;;9.98;64.43
498;BME280;39559;48.630;9.162;2023-03-02T12:54:28;97453.22;;;10.80;61.99
498;BME280;39559;48.630;9.162;2023-03-02T12:57:19;97451.13;;;10.48;61.84
498;BME280;39559;48.630;9.162;2023-03-02T12:59:53;97449.63;;;11.41;61.30
498;BME280;39559;48.630;9.162;2023-03-02T13:02:30;97448.00;;;11.38;59.08
498;BME280;39559;48.630;9.162;2023-03-02T13:04:58;97454.66;;;10.25;59.50
498;BME280;39559;48.630;9.162;2023-03-02T13:07:34;97460.75;;;9.82;61.50
498;BME280;39559;48.630;9.162;2023-03-02T13:10:05;97449.06;;;10.14;62.00
498;BME280;39559;48.630;9.162;2023-03-02T13:12:33;97464.19;;;9.82;62.62
498;BME280;39559;48.630;9.162;2023-03-02T13:15:00;97452.34;;;10.40;60.90
498;BME280;39559;48.630;9.162;2023-03-02T13:17:29;97452.66;;;9.45;60.96
498;BME280;39559;48.630;9.162;2023-03-02T13:21:18;97458.91;;;8.70;63.95
498;BME280;39559;48.630;9.162;2023-03-02T13:23:48;97451.56;;;8.58;64.86
498;BME280;39559;48.630;9.162;2023-03-02T13:26:32;97444.00;;;9.00;66.01
498;BME280;39559;48.630;9.162;2023-03-02T13:31:29;97452.19;;;7.59;68.69
498;BME280;39559;48.630;9.162;2023-03-02T13:33:56;97448.78;;;7.85;71.76
498;BME280;39559;48.630;9.162;2023-03-02T13:36:35;97440.00;;;8.92;67.29
498;BME280;39559;48.630;9.162;2023-03-02T13:39:06;97442.78;;;8.37;67.45
498;BME280;39559;48.630;9.162;2023-03-02T13:41:34;97440.94;;;8.65;68.94
498;BME280;39559;48.630;9.162;2023-03-02T13:45:32;97439.47;;;9.51;64.72
498;BME280;39559;48.630;9.162;2023-03-02T13:47:59;97429.34;;;9.45;63.18
498;BME280;39559;48.630;9.162;2023-03-02T13:50:27;97440.97;;;9.79;62.86
498;BME280;39559;48.630;9.162;2023-03-02T13:52:58;97428.53;;;8.50;66.49
498;BME280;39559;48.630;9.162;2023-03-02T13:55:27;97427.16;;;8.65;68.43
498;BME280;39559;48.630;9.162;2023-03-02T13:57:53;97430.81;;;8.83;67.04
498;BME280;39559;48.630;9.162;2023-03-02T14:00:24;97437.97;;;9.00;67.58
498;BME280;39559;48.630;9.162;2023-03-02T14:02:50;97434.78;;;8.93;66.31
498;BME280;39559;48.630;9.162;2023-03-02T14:05:20;97433.44;;;8.58;65.66
498;BME280;39559;48.630;9.162;2023-03-02T14:09:19;97435.16;;;8.82;66.35
498;BME280;39559;48.630;9.162;2023-03-02T14:11:50;97433.50;;;9.03;66.16
498;BME280;39559;48.630;9.162;2023-03-02T14:14:22;97436.69;;;8.13;67.60
498;BME280;39559;48.630;9.162;2023-03-02T14:16:49;97428.63;;;8.72;66.10
498;BME280;39559;48.630;9.162;2023-03-02T14:19:15;97430.81;;;8.83;65.61
498;BME280;39559;48.630;9.162;2023-03-02T14:21:43;97426.13;;;8.93;65.18
498;BME280;39559;48.630;9.162;2023-03-02T14:24:09;97425.03;;;8.26;66.69
498;BME280;39559;48.630;9.162;2023-03-02T14:33:19;97419.38;;;8.89;64.50
498;BME280;39559;48.630;9.162;2023-03-02T14:35:46;97418.94;;;8.27;65.45
498;BME280;39559;48.630;9.162;2023-03-02T14:38:12;97422.97;;;8.61;65.58
498;BME280;39559;48.630;9.162;2023-03-02T14:40:38;97427.59;;;9.00;64.46
498;BME280;39559;48.630;9.162;2023-03-02T14:43:04;97421.50;;;9.47;64.12
498;BME280;39559;48.630;9.162;2023-03-02T14:45:30;97411.03;;;9.72;62.23
498;BME280;39559;48.630;9.162;2023-03-02T14:47:55;97415.16;;;9.76;61.05
498;BME280;39559;48.630;9.162;2023-03-02T14:50:21;97416.50;;;9.86;61.66
498;BME280;39559;48.630;9.162;2023-03-02T14:52:53;97421.84;;;9.15;65.03
498;BME280;39559;48.630;9.162;2023-03-02T14:57:21;97420.25;;;9.57;65.00
498;BME280;39559;48.630;9.162;2023-03-02T14:59:47;97415.97;;;9.56;63.57
498;BME280;39559;48.630;9.162;2023-03-02T15:02:13;97415.66;;;9.41;64.53
498;BME280;39559;48.630;9.162;2023-03-02T15:04:39;97416.13;;;9.51;64.20
498;BME280;39559;48.630;9.162;2023-03-02T15:07:04;97416.03;;;9.54;63.73
498;BME280;39559;48.630;9.162;2023-03-02T15:09:30;97424.78;;;9.52;63.35
498;BME280;39559;48.630;9.162;2023-03-02T15:11:55;97417.59;;;9.36;63.93
498;BME280;39559;48.630;9.162;2023-03-02T15:14:21;97418.56;;;9.34;63.78
498;BME280;39559;48.630;9.162;2023-03-02T15:16:46;97420.09;;;9.16;63.80
498;BME280;39559;48.630;9.162;2023-03-02T15:21:21;97422.72;;;9.38;65.02
498;BME280;39559;48.630;9.162;2023-03-02T15:23:48;97421.47;;;9.02;65.70
498;BME280;39559;48.630;9.162;2023-03-02T15:26:15;97416.69;;;9.15;65.14
498;BME280;39559;48.630;9.162;2023-03-02T15:28:41;97416.66;;;8.44;67.81
498;BME280;39559;48.630;9.162;2023-03-02T15:31:08;97418.56;;;8.13;68.98
498;BME280;39559;48.630;9.162;2023-03-02T15:33:34;97420.03;;;8.47;68.35
498;BME280;39559;48.630;9.162;2023-03-02T15:36:00;97416.44;;;8.51;68.15
498;BME280;39559;48.630;9.162;2023-03-02T15:38:27;97418.69;;;8.60;67.63
498;BME280;39559;48.630;9.162;2023-03-02T15:40:54;97418.00;;;8.55;68.21
498;BME280;39559;48.630;9.162;2023-03-02T15:45:15;97413.69;;;8.30;67.58
498;BME280;39559;48.630;9.162;2023-03-02T15:47:41;97415.25;;;8.34;67.77
498;BME280;39559;48.630;9.162;2023-03-02T15:50:07;97423.78;;;8.11;68.54